KTRL/TRL METAR and TAF weather

Enter ICAO airport designator
Station Type Date Time Source
KTRL METAR 2021/02/28 02:53 UTC NOAA

KTRL 280253Z AUTO 16008KT 10SM OVC080 20/16 A2983 RMK AO2 SLP096 T02000161 53011


Station Type Date Time Source
KTRL Decoded METAR 2021/02/28 02:53 UTC NOAA

TERRELL MUNICIPAL AIRPORT, TX, United States (KTRL) 32-43N 96-16W 144M
Feb 27, 2021 - 09:53 PM EST / 2021.02.28 0253 UTC
Wind: from the SSE (160 degrees) at 9 MPH (8 KT):0
Visibility: 10 mile(s):0
Sky conditions: overcast
Temperature: 68.0 F (20.0 C)
Dew Point: 61.0 F (16.1 C)
Relative Humidity: 78%
Pressure (altimeter): 29.83 in. Hg (1010 hPa)
Pressure tendency: 0.03 inches (1.1 hPa) higher than three hours ago
ob: KTRL 280253Z AUTO 16008KT 10SM OVC080 20/16 A2983 RMK AO2 SLP096 T02000161 53011
cycle: 3

Station Type Date Time Source
KTRL TAF UTC NOAA

Error!

Example: see airport list